METAR Data
IDs: Format: Raw Decoded Include TAF

Data at: 1220 UTC 23 Sep 2018

KJFZ 231155Z AUTO 00000KT 10SM BKN038 OVC120 18/18 A3016 RMK AO2 60006 70006 T01780177 10180 20176
KJFZ 231135Z AUTO 00000KT 10SM BKN040 BKN050 OVC120 18/18 A3015 RMK AO2 T01770176
KJFZ 231115Z AUTO 00000KT 3/4SM BR BKN001 OVC040 18/18 A3015 RMK AO2 T01770176
KJFZ 231055Z AUTO 00000KT 1/4SM FG OVC001 18/18 A3015 RMK AO2 P0001 T01770176
KJFZ 231035Z AUTO 00000KT 1/4SM FG OVC003 18/18 A3015 RMK AO2 P0001 T01770176
KJFZ 231015Z AUTO 15003KT 1/4SM FG OVC003 18/18 A3014 RMK AO2 P0001 T01780177
KJFZ 230955Z AUTO 00000KT 1 1/2SM -RA BKN003 BKN034 OVC050 18/18 A3015 RMK AO2 P0005 T01800178
KJFZ 230935Z AUTO 19003KT 2SM +RA OVC003 18/18 A3016 RMK AO2 T01780177
KJFZ 230915Z AUTO 00000KT 1SM BR OVC003 18/18 A3015 RMK AO2 T01770176
KJFZ 230850Z AUTO 00000KT 5SM BR OVC003 18/18 A3015 RMK AO2 T01770176
KJFZ 230835Z AUTO 00000KT 1SM BR OVC003 18/18 A3015 RMK AO2 T01760175
KJFZ 230815Z AUTO 00000KT 1/2SM FG OVC003 18/18 A3015 RMK AO2 T01760175
KJFZ 230755Z AUTO 30003KT 2SM BR OVC003 18/18 A3016 RMK AO2 VIS 3/4V5 T01760175
KJFZ 230735Z AUTO 29003KT 1/4SM FG OVC003 18/18 A3016 RMK AO2 T01770176
KJFZ 230715Z AUTO 00000KT 1/4SM FG OVC003 18/18 A3015 RMK AO2 T01770176
KJFZ 230655Z AUTO 00000KT 1/4SM FG OVC003 18/18 A3016 RMK AO2 T01770176
KJFZ 230635Z AUTO 00000KT 3/4SM BR OVC003 18/18 A3016 RMK AO2 T01770176
KJFZ 230615Z AUTO 00000KT 1SM BR OVC003 18/18 A3016 RMK AO2 VIS 3/4V2 1/2 T01780176
KJFZ 230555Z AUTO 05003KT 1 1/4SM BR OVC003 18/18 A3017 RMK AO2 T01770175 10191 20177 402570177
KJFZ 230535Z AUTO 05004KT 1 1/4SM BR OVC003 18/18 A3017 RMK AO2 T01780176
KJFZ 230515Z AUTO 05004KT 1 1/4SM BR OVC003 18/18 A3017 RMK AO2 T01780176
KJFZ 230455Z AUTO 05004KT 1 1/4SM BR OVC003 18/18 A3017 RMK AO2 T01800176
KJFZ 230435Z AUTO 00000KT 4SM BR OVC003 18/18 A3018 RMK AO2 T01800176
KJFZ 230415Z AUTO 00000KT 10SM BKN003 OVC100 18/18 A3019 RMK AO2 T01810175
KJFZ 230355Z AUTO 00000KT 10SM SCT003 BKN037 OVC100 18/18 A3019 RMK AO2 T01810176
KJFZ 230335Z AUTO 06004KT 10SM SCT003 BKN037 OVC070 18/18 A3019 RMK AO2 T01810176
KJFZ 230315Z AUTO 00000KT 10SM OVC003 18/18 A3019 RMK AO2 T01810177
KJFZ 230255Z AUTO 04003KT 7SM OVC003 18/18 A3019 RMK AO2 T01810177
KJFZ 230235Z AUTO 00000KT 10SM OVC003 18/18 A3020 RMK AO2 T01830178
KJFZ 230215Z AUTO 09004KT 10SM OVC003 18/18 A3019 RMK AO2 T01830177
KJFZ 230155Z AUTO 04003KT 10SM OVC003 19/18 A3020 RMK AO2 T01850178
KJFZ 230135Z AUTO 00000KT 10SM OVC005 19/18 A3020 RMK AO2 T01850180
KJFZ 230115Z AUTO 00000KT 10SM OVC005 19/18 A3019 RMK AO2 T01850179
KJFZ 230055Z AUTO 02003KT 10SM -RA OVC005 19/18 A3018 RMK AO2 T01860180
KJFZ 230035Z AUTO 36003KT 10SM OVC005 19/18 A3019 RMK AO2 T01870181
KJFZ 230015Z AUTO 03004KT 10SM OVC005 19/18 A3017 RMK AO2 T01880181
KJFZ 222355Z AUTO 02004KT 10SM OVC007 19/19 A3017 RMK AO2 T01920185 10257 20192
KJFZ 222335Z AUTO 00000KT 10SM OVC009 20/18 A3017 RMK AO2 T01960184
KJFZ 222315Z AUTO 03004KT 10SM OVC009 20/18 A3017 RMK AO2 T01960183
KJFZ 222255Z AUTO 35004KT 10SM OVC009 20/18 A3017 RMK AO2 T01970183
KJFZ 222235Z AUTO 36003KT 10SM OVC009 20/18 A3017 RMK AO2 T02000181
KJFZ 222215Z AUTO 00000KT 10SM SCT009 BKN025 OVC046 20/18 A3017 RMK AO2 T02030181
KJFZ 222155Z AUTO 34007KT 10SM BKN007 BKN025 OVC048 20/18 A3016 RMK AO2 LTG DSNT NE T02020181
KJFZ 222135Z AUTO 01006KT 10SM SCT009 BKN017 OVC038 20/18 A3016 RMK AO2 T02010182
KJFZ 222115Z AUTO 35006KT 10SM BKN012 BKN017 OVC034 21/18 A3016 RMK AO2 T02060183
KJFZ 222055Z AUTO 32008KT 10SM SCT025 BKN034 OVC085 22/19 A3015 RMK AO2 T02230188
KJFZ 222035Z AUTO 08004KT 10SM SCT027 BKN090 BKN120 23/19 A3014 RMK AO2 T02310187
KJFZ 222015Z AUTO 00000KT 10SM SCT120 25/19 A3015 RMK AO2 T02500185
KJFZ 221955Z AUTO 26004KT 10SM SCT031 SCT120 26/19 A3015 RMK AO2 LTG DSNT N T02550185
KJFZ 221935Z AUTO 22005KT 10SM SCT027 SCT044 25/18 A3016 RMK AO2 T02520183
KJFZ 221915Z AUTO 00000KT 10SM BKN025 BKN030 OVC044 25/19 A3017 RMK AO2 T02510188
KJFZ 221855Z AUTO 27005KT 10SM BKN025 BKN038 OVC120 24/19 A3017 RMK AO2 T02420187
KJFZ 221835Z AUTO 26005KT 10SM SCT035 BKN080 OVC120 25/19 A3018 RMK AO2 T02480186
KJFZ 221815Z AUTO 25005KT 10SM SCT037 BKN085 OVC110 24/18 A3019 RMK AO2 T02380184
KJFZ 221755Z AUTO 24004KT 10SM SCT023 SCT044 OVC110 25/18 A3020 RMK AO2 T02460183 10248 20187
KJFZ 221735Z AUTO 28003KT 10SM SCT021 SCT048 OVC100 24/18 A3021 RMK AO2 T02350180
KJFZ 221715Z AUTO 00000KT 10SM SCT025 BKN048 OVC110 24/19 A3021 RMK AO2 T02380185
KJFZ 221655Z AUTO 26005KT 10SM SCT023 BKN036 OVC044 23/19 A3022 RMK AO2 T02280185
KJFZ 221635Z AUTO 27003KT 10SM BKN023 BKN028 BKN037 24/19 A3022 RMK AO2 T02440186
KJFZ 221615Z AUTO 00000KT 10SM BKN021 23/19 A3022 RMK AO2 T02340185
KJFZ 221555Z AUTO 34003KT 10SM BKN021 BKN120 23/18 A3023 RMK AO2 T02310182
KJFZ 221535Z AUTO 32004KT 10SM SCT018 SCT120 23/19 A3023 RMK AO2 T02300185
KJFZ 221515Z AUTO 25005KT 10SM SCT016 SCT050 SCT110 23/18 A3023 RMK AO2 T02270183
KJFZ 221455Z AUTO 28004KT 10SM SCT016 BKN110 23/18 A3023 RMK AO2 T02250184
KJFZ 221435Z AUTO 31003KT 10SM SCT050 BKN120 22/19 A3023 RMK AO2 T02190186
KJFZ 221415Z AUTO 00000KT 10SM SCT010 SCT018 OVC048 21/18 A3023 RMK AO2 T02100180
KJFZ 221355Z AUTO 00000KT 10SM SCT010 BKN046 OVC060 21/18 A3023 RMK AO2 T02050181
KJFZ 221335Z AUTO 00000KT 10SM BKN025 OVC060 20/18 A3023 RMK AO2 T02020176
KJFZ 221315Z AUTO 00000KT 10SM OVC060 20/18 A3023 RMK AO2 T02000177
KJFZ 221255Z AUTO 00000KT 10SM SCT041 OVC060 20/18 A3022 RMK AO2 T01950177
KJFZ 221230Z AUTO 00000KT 10SM OVC043 19/18 A3022 RMK AO2 T01900176
KJFZ 221220Z AUTO 00000KT 10SM BKN040 BKN048 OVC050 19/18 A3022 RMK AO2 T01900176
KJFZ 221155Z AUTO 00000KT 10SM SCT028 BKN042 OVC050 19/18 A3022 RMK AO2 T01870176 10202 20180
KJFZ 221135Z AUTO 27003KT 10SM SCT026 BKN034 OVC043 19/18 A3022 RMK AO2 T01850175
KJFZ 221115Z AUTO 26003KT 10SM SCT028 OVC036 19/18 A3021 RMK AO2 T01870175
KJFZ 221055Z AUTO 26004KT 10SM BKN036 BKN043 19/17 A3020 RMK AO2 T01910173
KJFZ 221035Z AUTO 26004KT 10SM CLR 19/17 A3020 RMK AO2 T01910170
KJFZ 221015Z AUTO 25007KT 10SM CLR 19/17 A3020 RMK AO2 T01900170
KJFZ 220955Z AUTO 25006KT 10SM SCT047 SCT055 SCT085 20/17 A3020 RMK AO2 T01970172
KJFZ 220935Z AUTO 24006KT 10SM -RA SCT038 BKN047 OVC080 20/17 A3020 RMK AO2 T02000173
KJFZ 220915Z AUTO 25005KT 10SM SCT043 SCT060 BKN085 19/17 A3020 RMK AO2 T01860173
KJFZ 220855Z AUTO 25004KT 10SM SCT041 SCT085 19/17 A3020 RMK AO2 T01930170
KJFZ 220835Z AUTO 00000KT 10SM SCT041 SCT047 OVC085 19/17 A3020 RMK AO2 T01900170
KJFZ 220815Z AUTO 16003KT 10SM BKN039 BKN050 OVC085 19/17 A3020 RMK AO2 T01860169
KJFZ 220755Z AUTO 00000KT 10SM OVC041 19/17 A3020 RMK AO2 T01940170
KJFZ 220735Z AUTO 00000KT 10SM OVC043 19/17 A3021 RMK AO2 T01900170
KJFZ 220715Z AUTO 00000KT 10SM BKN043 OVC049 20/17 A3021 RMK AO2 T01970171
KJFZ 220655Z AUTO 25003KT 10SM BKN043 20/17 A3021 RMK AO2 T01960171
KJFZ 220635Z AUTO 26005KT 10SM CLR 19/17 A3021 RMK AO2 T01930170
KJFZ 220615Z AUTO 00000KT 10SM CLR 20/17 A3021 RMK AO2 T01990165
KJFZ 220555Z AUTO 23004KT 10SM CLR 20/17 A3021 RMK AO2 T02010165 10233 20190 402660190
KJFZ 220535Z AUTO 00000KT 10SM CLR 19/17 A3021 RMK AO2 T01910167
KJFZ 220515Z AUTO 24003KT 10SM CLR 20/17 A3021 RMK AO2 T02000167
KJFZ 220455Z AUTO 22003KT 10SM CLR 20/17 A3021 RMK AO2 T02000167
KJFZ 220435Z AUTO 21003KT 10SM SCT095 21/17 A3021 RMK AO2 T02130166
KJFZ 220415Z AUTO 00000KT 10SM CLR 21/17 A3021 RMK AO2 T02120165
KJFZ 220355Z AUTO 24003KT 10SM CLR 22/16 A3021 RMK AO2 T02150161
KJFZ 220335Z AUTO 00000KT 10SM CLR 21/17 A3021 RMK AO2 T02070166
KJFZ 220315Z AUTO 20004KT 10SM CLR 22/17 A3021 RMK AO2 T02180165
KJFZ 220255Z AUTO 20004KT 10SM CLR 22/17 A3021 RMK AO2 T02180167
KJFZ 220235Z AUTO 20004KT 10SM SCT110 21/17 A3022 RMK AO2 T02110169
KJFZ 220215Z AUTO 16005KT 10SM SCT110 21/17 A3021 RMK AO2 T02120170
KJFZ 220155Z AUTO 21004KT 10SM OVC110 22/17 A3022 RMK AO2 T02190170
KJFZ 220135Z AUTO 21003KT 10SM OVC110 22/17 A3021 RMK AO2 T02190172
KJFZ 220115Z AUTO 00000KT 10SM OVC110 21/18 A3021 RMK AO2 T02130177
KJFZ 220055Z AUTO 17003KT 10SM BKN110 22/17 A3021 RMK AO2 T02200173
KJFZ 220035Z AUTO 00000KT 10SM BKN100 23/17 A3021 RMK AO2 T02270170